createdAt,value
2018-08-20T00:01:37.868Z,9.83
2018-08-20T00:04:09.135Z,9.33
2018-08-20T00:06:50.281Z,10.70
2018-08-20T00:09:20.324Z,10.17
2018-08-20T00:11:49.263Z,9.10
2018-08-20T00:14:20.232Z,10.40
2018-08-20T00:16:48.741Z,9.50
2018-08-20T00:19:17.401Z,10.73
2018-08-20T00:21:46.185Z,9.07
2018-08-20T00:24:14.737Z,10.70
2018-08-20T00:26:43.271Z,10.97
2018-08-20T00:29:11.791Z,9.83
2018-08-20T00:31:40.401Z,10.63
2018-08-20T00:34:09.066Z,9.73
2018-08-20T00:36:37.582Z,10.83
2018-08-20T00:39:08.177Z,11.40
2018-08-20T00:41:36.719Z,9.37
2018-08-20T00:44:09.437Z,10.00
2018-08-20T00:46:37.948Z,9.60
2018-08-20T00:49:06.443Z,10.33
2018-08-20T00:51:35.282Z,10.97
2018-08-20T00:54:03.893Z,9.80
2018-08-20T00:56:32.414Z,9.90
2018-08-20T00:59:01.515Z,9.10
2018-08-20T01:01:30.075Z,10.27
2018-08-20T01:03:58.891Z,9.43
2018-08-20T01:06:27.436Z,10.90
2018-08-20T01:08:55.995Z,9.97
2018-08-20T01:11:24.443Z,9.83
2018-08-20T01:13:52.964Z,10.63
2018-08-20T01:16:21.533Z,10.03
2018-08-20T01:18:50.186Z,9.10
2018-08-20T01:21:18.711Z,9.80
2018-08-20T01:23:47.303Z,9.13
2018-08-20T01:26:15.798Z,9.90
2018-08-20T01:28:44.315Z,9.50
2018-08-20T01:31:12.835Z,9.33
2018-08-20T01:33:41.465Z,9.37
2018-08-20T01:36:10.133Z,8.60
2018-08-20T01:38:38.641Z,8.60
2018-08-20T01:41:07.127Z,9.03
2018-08-20T01:43:35.727Z,8.73
2018-08-20T01:46:04.262Z,8.20
2018-08-20T01:48:33.104Z,8.17
2018-08-20T01:51:01.772Z,7.83
2018-08-20T01:53:30.392Z,8.20
2018-08-20T01:55:58.883Z,7.33
2018-08-20T01:58:27.494Z,7.93
2018-08-20T02:00:56.076Z,7.03
2018-08-20T02:03:24.598Z,7.73
2018-08-20T02:05:53.103Z,7.57
2018-08-20T02:08:21.639Z,7.83
2018-08-20T02:10:50.167Z,9.93
2018-08-20T02:13:18.691Z,8.50
2018-08-20T02:15:47.375Z,8.60
2018-08-20T02:18:15.996Z,8.80
2018-08-20T02:20:44.604Z,8.27
2018-08-20T02:23:13.070Z,7.90
2018-08-20T02:25:41.622Z,7.23
2018-08-20T02:28:10.140Z,8.67
2018-08-20T02:30:38.801Z,9.00
2018-08-20T02:33:07.355Z,7.77
2018-08-20T02:35:35.857Z,8.60
2018-08-20T02:38:04.502Z,10.50
2018-08-20T02:40:33.675Z,7.90
2018-08-20T02:43:02.232Z,9.27
2018-08-20T02:45:30.885Z,10.07
2018-08-20T02:47:59.520Z,8.93
2018-08-20T02:50:27.995Z,10.70
2018-08-20T02:52:56.535Z,10.27
2018-08-20T02:55:25.062Z,11.10
2018-08-20T02:57:53.604Z,11.10
2018-08-20T03:00:22.132Z,11.53
2018-08-20T03:02:50.659Z,11.10
2018-08-20T03:05:19.167Z,10.87
2018-08-20T03:07:47.746Z,12.10
2018-08-20T03:10:16.235Z,10.77
2018-08-20T03:12:44.816Z,11.43
2018-08-20T03:15:13.295Z,11.20
2018-08-20T03:17:41.758Z,11.80
2018-08-20T03:20:10.299Z,11.10
2018-08-20T03:22:38.893Z,10.60
2018-08-20T03:25:08.121Z,11.63
2018-08-20T03:27:36.887Z,10.53
2018-08-20T03:30:07.052Z,11.87
2018-08-20T03:32:35.624Z,11.07
2018-08-20T03:35:04.502Z,11.63
2018-08-20T03:37:32.993Z,11.13
2018-08-20T03:40:01.535Z,11.37
2018-08-20T03:42:30.021Z,9.87
2018-08-20T03:44:58.620Z,11.50
2018-08-20T03:47:27.215Z,11.17
2018-08-20T03:49:55.859Z,10.73
2018-08-20T03:52:24.392Z,10.70
2018-08-20T03:54:52.919Z,10.33
2018-08-20T03:57:21.536Z,10.20
2018-08-20T03:59:50.020Z,9.50
2018-08-20T04:02:18.575Z,11.33
2018-08-20T04:04:47.080Z,9.63
2018-08-20T04:07:15.688Z,11.37
2018-08-20T04:09:44.219Z,11.20
2018-08-20T04:12:12.703Z,10.43
2018-08-20T04:14:41.295Z,9.50
2018-08-20T04:17:09.795Z,10.50
2018-08-20T04:19:38.355Z,9.93
2018-08-20T04:22:06.843Z,10.17
2018-08-20T04:24:35.323Z,9.20
2018-08-20T04:27:03.874Z,9.70
2018-08-20T04:29:32.332Z,9.60
2018-08-20T04:32:00.835Z,9.47
2018-08-20T04:34:29.551Z,7.80
2018-08-20T04:36:58.068Z,8.90
2018-08-20T04:39:26.610Z,8.80
2018-08-20T04:41:55.096Z,9.93
2018-08-20T04:44:23.599Z,8.17
2018-08-20T04:46:52.070Z,9.17
2018-08-20T04:49:20.586Z,9.23
2018-08-20T04:51:49.056Z,8.70
2018-08-20T04:54:17.559Z,9.30
2018-08-20T04:56:46.027Z,9.10
2018-08-20T04:59:14.547Z,8.63
2018-08-20T05:01:43.156Z,8.80
2018-08-20T05:04:11.632Z,8.77
2018-08-20T05:06:40.157Z,9.13
2018-08-20T05:09:08.930Z,8.57
2018-08-20T05:11:37.592Z,7.73
2018-08-20T05:14:06.138Z,9.10
2018-08-20T05:16:34.608Z,9.37
2018-08-20T05:19:03.311Z,8.77
2018-08-20T05:21:31.768Z,9.83
2018-08-20T05:24:00.263Z,8.60
2018-08-20T05:26:28.770Z,9.43
2018-08-20T05:28:57.397Z,8.20
2018-08-20T05:31:25.920Z,9.20
2018-08-20T05:33:54.466Z,9.90
2018-08-20T05:36:23.007Z,8.50
2018-08-20T05:38:51.515Z,8.57
2018-08-20T05:41:20.096Z,8.17
2018-08-20T05:43:48.612Z,9.33
2018-08-20T05:46:17.147Z,9.23
2018-08-20T05:48:45.641Z,9.63
2018-08-20T05:51:14.171Z,9.03
2018-08-20T05:53:42.688Z,8.30
2018-08-20T05:56:11.192Z,9.60
2018-08-20T05:58:39.718Z,8.80
2018-08-20T06:01:08.256Z,7.93
2018-08-20T06:03:36.888Z,9.20
2018-08-20T06:06:05.924Z,14.33
2018-08-20T06:08:34.419Z,9.37
2018-08-20T06:11:02.959Z,7.93
2018-08-20T06:13:31.461Z,6.97
2018-08-20T06:16:00.002Z,7.27
2018-08-20T06:18:28.688Z,8.43
2018-08-20T06:20:57.167Z,7.93
2018-08-20T06:23:25.773Z,6.93
2018-08-20T06:25:54.337Z,6.90
2018-08-20T06:28:22.952Z,7.50
2018-08-20T06:30:51.584Z,7.60
2018-08-20T06:33:20.159Z,8.00
2018-08-20T06:35:48.833Z,7.83
2018-08-20T06:38:17.244Z,7.60
2018-08-20T06:40:45.732Z,9.23
2018-08-20T06:43:14.207Z,9.13
2018-08-20T06:45:42.711Z,8.20
2018-08-20T06:48:11.226Z,8.87
2018-08-20T06:50:39.963Z,7.70
2018-08-20T06:53:08.527Z,6.97
2018-08-20T06:55:37.091Z,7.73
2018-08-20T06:58:05.632Z,8.40
2018-08-20T07:00:34.296Z,7.87
2018-08-20T07:03:02.896Z,7.70
2018-08-20T07:05:31.417Z,8.27
2018-08-20T07:07:59.892Z,7.50
2018-08-20T07:10:45.652Z,8.67
2018-08-20T07:13:26.659Z,6.07
2018-08-20T07:15:55.402Z,6.97
2018-08-20T07:18:23.892Z,7.70
2018-08-20T07:20:52.526Z,8.77
2018-08-20T07:23:21.084Z,7.50
2018-08-20T07:25:49.583Z,8.47
2018-08-20T07:28:18.114Z,8.00
2018-08-20T07:30:46.895Z,6.83
2018-08-20T07:33:15.566Z,10.50
2018-08-20T07:35:44.250Z,7.40
2018-08-20T07:38:12.925Z,8.40
2018-08-20T07:40:41.496Z,8.40
2018-08-20T07:43:10.067Z,7.87
2018-08-20T07:45:38.735Z,9.60
2018-08-20T07:48:07.587Z,9.53
2018-08-20T07:50:36.088Z,7.40
2018-08-20T07:53:04.640Z,9.20
2018-08-20T07:55:33.350Z,7.83
2018-08-20T07:58:01.944Z,6.00
2018-08-20T08:00:30.576Z,8.20
2018-08-20T08:02:59.137Z,8.10
2018-08-20T08:05:27.683Z,11.40
2018-08-20T08:07:56.239Z,7.13
2018-08-20T08:10:24.819Z,8.00
2018-08-20T08:12:53.384Z,8.07
2018-08-20T08:15:22.003Z,7.03
2018-08-20T08:17:50.527Z,5.93
2018-08-20T08:20:19.174Z,7.20
2018-08-20T08:22:47.751Z,8.50
2018-08-20T08:25:16.257Z,6.77
2018-08-20T08:27:44.791Z,7.13
2018-08-20T08:30:16.172Z,7.27
2018-08-20T08:32:44.830Z,5.20
2018-08-20T08:35:14.212Z,5.53
2018-08-20T08:37:42.885Z,7.30
2018-08-20T08:40:13.163Z,7.70
2018-08-20T08:42:41.726Z,5.07
2018-08-20T08:45:12.888Z,5.67
2018-08-20T08:47:41.654Z,5.50
2018-08-20T08:50:10.215Z,5.33
2018-08-20T08:52:39.667Z,5.37
2018-08-20T08:55:08.820Z,6.50
2018-08-20T08:57:38.192Z,5.10
2018-08-20T09:00:10.552Z,5.40
2018-08-20T09:02:39.154Z,5.80
2018-08-20T09:05:09.078Z,6.83
2018-08-20T09:07:37.555Z,5.90
2018-08-20T09:10:06.974Z,6.27
2018-08-20T09:12:35.541Z,11.90
2018-08-20T09:15:05.108Z,7.80
2018-08-20T09:17:33.622Z,8.20
2018-08-20T09:20:02.218Z,6.07
2018-08-20T09:22:30.810Z,5.93
2018-08-20T09:24:59.323Z,7.10
2018-08-20T09:27:27.905Z,5.20
2018-08-20T09:29:56.776Z,5.13
2018-08-20T09:32:25.399Z,4.90
2018-08-20T09:34:53.893Z,4.20
2018-08-20T09:37:22.411Z,9.50
2018-08-20T09:39:50.931Z,5.50
2018-08-20T09:42:19.456Z,5.03
2018-08-20T09:44:48.147Z,7.77
2018-08-20T09:47:16.667Z,5.50
2018-08-20T09:49:45.267Z,5.00
2018-08-20T09:52:13.783Z,5.70
2018-08-20T09:54:42.311Z,5.67
2018-08-20T09:57:10.803Z,11.90
2018-08-20T09:59:39.553Z,5.10
2018-08-20T10:02:08.527Z,7.20
2018-08-20T10:04:37.040Z,5.57
2018-08-20T10:07:05.665Z,5.50
2018-08-20T10:09:34.171Z,5.03
2018-08-20T10:12:02.879Z,5.80
2018-08-20T10:14:31.404Z,8.33
2018-08-20T10:17:00.095Z,4.97
2018-08-20T10:19:28.623Z,5.20
2018-08-20T10:21:57.279Z,5.43
2018-08-20T10:24:25.863Z,7.10
2018-08-20T10:26:54.435Z,5.93
2018-08-20T10:29:23.075Z,5.57
2018-08-20T10:31:51.607Z,5.17
2018-08-20T10:34:20.129Z,6.27
2018-08-20T10:36:48.672Z,6.30
2018-08-20T10:39:17.178Z,5.03
2018-08-20T10:41:45.876Z,5.40
2018-08-20T10:44:14.359Z,5.40
2018-08-20T10:46:43.011Z,4.57
2018-08-20T10:49:11.621Z,5.00
2018-08-20T10:51:40.518Z,5.30
2018-08-20T10:54:09.046Z,5.30
2018-08-20T10:56:37.716Z,5.10
2018-08-20T10:59:06.542Z,5.47
2018-08-20T11:01:35.184Z,4.87
2018-08-20T11:04:03.835Z,5.13
2018-08-20T11:06:32.391Z,4.60
2018-08-20T11:09:00.882Z,4.57
2018-08-20T11:11:29.539Z,4.57
2018-08-20T11:13:58.242Z,4.83
2018-08-20T11:16:26.873Z,4.57
2018-08-20T11:18:55.409Z,4.30
2018-08-20T11:21:23.902Z,4.50
2018-08-20T11:23:52.408Z,4.70
2018-08-20T11:26:20.985Z,4.80
2018-08-20T11:28:49.554Z,4.20
2018-08-20T11:31:18.096Z,4.97
2018-08-20T11:33:46.594Z,4.83
2018-08-20T11:36:15.127Z,6.93
2018-08-20T11:38:43.766Z,4.77
2018-08-20T11:41:12.308Z,4.03
2018-08-20T11:43:40.966Z,5.17
2018-08-20T11:46:09.485Z,4.13
2018-08-20T11:48:38.310Z,3.90
2018-08-20T11:51:07.883Z,4.07
2018-08-20T11:53:36.575Z,4.33
2018-08-20T11:56:05.439Z,4.50
2018-08-20T11:58:33.980Z,6.40
2018-08-20T12:01:02.802Z,3.20
2018-08-20T12:03:31.900Z,3.67
2018-08-20T12:06:00.822Z,4.20
2018-08-20T12:08:29.352Z,4.10
2018-08-20T12:10:57.985Z,4.07
2018-08-20T12:13:26.695Z,4.30
2018-08-20T12:15:55.215Z,3.80
2018-08-20T12:18:23.717Z,4.23
2018-08-20T12:20:52.232Z,3.87
2018-08-20T12:23:20.875Z,4.03
2018-08-20T12:25:49.375Z,5.93
2018-08-20T12:28:17.934Z,6.00
2018-08-20T12:30:46.476Z,3.53
2018-08-20T12:33:15.013Z,4.40
2018-08-20T12:35:43.608Z,4.43
2018-08-20T12:38:12.179Z,6.57
2018-08-20T12:40:40.660Z,4.10
2018-08-20T12:43:09.282Z,4.53
2018-08-20T12:45:37.774Z,4.13
2018-08-20T12:48:06.293Z,3.60
2018-08-20T12:50:34.875Z,3.30
2018-08-20T12:53:03.396Z,3.50
2018-08-20T12:55:31.962Z,6.00
2018-08-20T12:58:00.661Z,9.40
2018-08-20T13:00:29.260Z,4.63
2018-08-20T13:02:57.808Z,4.47
2018-08-20T13:05:26.340Z,8.10
2018-08-20T13:07:54.829Z,5.03
2018-08-20T13:10:23.401Z,5.13
2018-08-20T13:12:51.950Z,4.80
2018-08-20T13:15:20.526Z,5.80
2018-08-20T13:17:49.112Z,4.60
2018-08-20T13:20:17.623Z,4.30
2018-08-20T13:22:46.111Z,5.03
2018-08-20T13:25:14.644Z,5.10
2018-08-20T13:27:43.151Z,5.00
2018-08-20T13:30:11.703Z,4.00
2018-08-20T13:32:40.230Z,5.10
2018-08-20T13:35:09.024Z,4.80
2018-08-20T13:37:37.965Z,5.03
2018-08-20T13:40:07.080Z,4.17
2018-08-20T13:42:35.594Z,4.43
2018-08-20T13:45:04.588Z,5.23
2018-08-20T13:47:33.298Z,4.63
2018-08-20T13:50:07.288Z,4.93
2018-08-20T13:52:35.827Z,4.67
2018-08-20T13:55:04.367Z,5.10
2018-08-20T13:57:38.235Z,4.40
2018-08-20T14:00:07.101Z,5.07
2018-08-20T14:02:35.652Z,4.63
2018-08-20T14:05:04.344Z,5.20
2018-08-20T14:07:33.036Z,4.93
2018-08-20T14:10:01.643Z,5.60
2018-08-20T14:12:30.175Z,4.77
2018-08-20T14:14:58.900Z,5.53
2018-08-20T14:17:27.532Z,4.57
2018-08-20T14:19:56.064Z,4.53
2018-08-20T14:22:24.875Z,4.80
2018-08-20T14:24:53.389Z,5.50
2018-08-20T14:27:22.016Z,5.23
2018-08-20T14:29:50.690Z,5.07
2018-08-20T14:32:19.298Z,4.10
2018-08-20T14:34:47.808Z,4.67
2018-08-20T14:37:16.435Z,5.00
2018-08-20T14:39:45.047Z,4.97
2018-08-20T14:42:13.705Z,5.00
2018-08-20T14:44:43.697Z,4.70
2018-08-20T14:47:12.525Z,4.70
2018-08-20T14:49:41.312Z,4.77
2018-08-20T14:52:10.288Z,5.40
2018-08-20T14:54:39.431Z,7.30
2018-08-20T14:57:08.291Z,4.50
2018-08-20T14:59:37.306Z,4.53
2018-08-20T15:02:05.916Z,5.00
2018-08-20T15:04:34.412Z,4.90
2018-08-20T15:07:05.645Z,5.10
2018-08-20T15:09:34.498Z,4.60
2018-08-20T15:12:03.024Z,5.13
2018-08-20T15:14:31.787Z,5.03
2018-08-20T15:17:00.320Z,5.13
2018-08-20T15:19:28.897Z,5.10
2018-08-20T15:21:57.513Z,5.00
2018-08-20T15:24:26.216Z,4.90
2018-08-20T15:26:54.752Z,5.57
2018-08-20T15:29:23.315Z,4.97
2018-08-20T15:31:51.941Z,3.97
2018-08-20T15:34:20.609Z,5.73
2018-08-20T15:36:49.159Z,6.87
2018-08-20T15:39:17.819Z,5.43
2018-08-20T15:41:46.454Z,4.93
2018-08-20T15:44:15.039Z,5.50
2018-08-20T15:46:43.632Z,5.17
2018-08-20T15:49:12.210Z,4.30
2018-08-20T15:51:40.752Z,5.13
2018-08-20T15:54:09.303Z,5.90
2018-08-20T15:56:38.063Z,5.40
2018-08-20T15:59:06.751Z,5.57
2018-08-20T16:01:35.349Z,5.00
2018-08-20T16:04:03.945Z,5.90
2018-08-20T16:06:32.625Z,5.90
2018-08-20T16:09:01.151Z,5.23
2018-08-20T16:11:29.678Z,10.00
2018-08-20T16:13:58.317Z,7.33
2018-08-20T16:16:27.211Z,5.10
2018-08-20T16:18:55.834Z,4.90
2018-08-20T16:21:24.353Z,4.70
2018-08-20T16:23:53.104Z,4.70
2018-08-20T16:26:21.671Z,4.37
2018-08-20T16:28:50.177Z,6.27
2018-08-20T16:31:18.780Z,4.80
2018-08-20T16:33:47.356Z,5.47
2018-08-20T16:36:16.102Z,5.00
2018-08-20T16:38:44.963Z,5.03
2018-08-20T16:41:13.532Z,4.63
2018-08-20T16:43:42.061Z,4.53
2018-08-20T16:46:10.628Z,4.50
2018-08-20T16:48:39.207Z,4.60
2018-08-20T16:51:07.804Z,4.90
2018-08-20T16:53:36.521Z,4.87
2018-08-20T16:56:05.128Z,4.33
2018-08-20T16:58:33.683Z,4.37
2018-08-20T17:01:02.276Z,4.63
2018-08-20T17:03:31.311Z,5.27
2018-08-20T17:06:00.012Z,4.47
2018-08-20T17:08:31.669Z,6.13
2018-08-20T17:11:00.490Z,4.40
2018-08-20T17:13:29.653Z,3.70
2018-08-20T17:15:58.286Z,4.57
2018-08-20T17:18:27.326Z,3.77
2018-08-20T17:20:56.354Z,4.30
2018-08-20T17:23:25.343Z,3.97
2018-08-20T17:25:56.530Z,3.60
2018-08-20T17:28:26.386Z,3.97
2018-08-20T17:30:58.637Z,4.20
2018-08-20T17:33:31.117Z,3.87
2018-08-20T17:36:00.022Z,3.47
2018-08-20T17:38:28.639Z,6.10
2018-08-20T17:40:57.272Z,3.63
2018-08-20T17:43:26.031Z,3.37
2018-08-20T17:45:57.773Z,3.73
2018-08-20T17:48:30.737Z,4.47
2018-08-20T17:50:59.916Z,3.40
2018-08-20T17:53:40.056Z,2.77
2018-08-20T17:56:08.642Z,4.33
2018-08-20T17:58:37.226Z,3.10
2018-08-20T18:01:05.918Z,3.33
2018-08-20T18:03:36.139Z,3.03
2018-08-20T18:06:07.125Z,3.93
2018-08-20T18:08:35.868Z,5.23
2018-08-20T18:11:05.507Z,3.53
2018-08-20T18:13:51.954Z,2.70
2018-08-20T18:16:21.853Z,2.97
2018-08-20T18:18:53.820Z,2.93
2018-08-20T18:21:22.632Z,3.00
2018-08-20T18:23:51.215Z,3.03
2018-08-20T18:26:20.156Z,4.03
2018-08-20T18:28:51.692Z,3.10
2018-08-20T18:31:24.238Z,3.00
2018-08-20T18:33:53.245Z,3.33
2018-08-20T18:36:23.916Z,3.87
2018-08-20T18:39:00.249Z,3.20
2018-08-20T18:42:17.232Z,3.90
2018-08-20T18:44:48.229Z,6.67
2018-08-20T18:47:18.297Z,4.90
2018-08-20T18:49:53.435Z,3.30
2018-08-20T18:52:23.133Z,3.50
2018-08-20T18:54:55.870Z,5.67
2018-08-20T18:57:28.692Z,3.83
2018-08-20T18:59:59.416Z,5.13
2018-08-20T19:03:03.031Z,3.20
2018-08-20T19:05:43.812Z,3.40
2018-08-20T19:08:17.040Z,3.40
2018-08-20T19:10:48.055Z,3.37
2018-08-20T19:13:16.690Z,2.90
2018-08-20T19:15:47.820Z,2.80
2018-08-20T19:18:29.360Z,3.03
2018-08-20T19:20:57.985Z,3.27
2018-08-20T19:23:26.680Z,3.80
2018-08-20T19:25:55.434Z,3.30
2018-08-20T19:28:25.164Z,3.20
2018-08-20T19:30:55.482Z,3.40
2018-08-20T19:33:26.607Z,6.00
2018-08-20T19:35:55.817Z,3.17
2018-08-20T19:38:24.676Z,3.27
2018-08-20T19:41:04.411Z,5.30
2018-08-20T19:43:38.476Z,3.47
2018-08-20T19:46:07.190Z,3.80
2018-08-20T19:48:35.785Z,3.67
2018-08-20T19:51:06.207Z,3.07
2018-08-20T19:53:34.892Z,4.13
2018-08-20T19:56:03.529Z,4.57
2018-08-20T19:58:33.931Z,4.00
2018-08-20T20:01:12.286Z,4.10
2018-08-20T20:03:43.669Z,4.17
2018-08-20T20:06:12.692Z,5.07
2018-08-20T20:08:41.293Z,5.07
2018-08-20T20:11:41.964Z,4.23
2018-08-20T20:14:10.773Z,4.97
2018-08-20T20:16:44.733Z,3.20
2018-08-20T20:19:13.662Z,3.30
2018-08-20T20:21:42.630Z,4.30
2018-08-20T20:24:12.081Z,3.70
2018-08-20T20:26:41.266Z,4.33
2018-08-20T20:29:10.971Z,4.30
2018-08-20T20:31:41.060Z,7.13
2018-08-20T20:34:10.069Z,3.53
2018-08-20T20:36:38.923Z,3.60
2018-08-20T20:39:11.976Z,4.10
2018-08-20T20:41:40.814Z,4.30
2018-08-20T20:44:10.619Z,3.80
2018-08-20T20:46:39.391Z,3.00
2018-08-20T20:49:08.219Z,6.30
2018-08-20T20:51:36.787Z,3.80
2018-08-20T20:54:05.808Z,4.70
2018-08-20T20:56:34.473Z,3.50
2018-08-20T20:59:03.197Z,3.10
2018-08-20T21:01:31.886Z,4.10
2018-08-20T21:04:04.485Z,4.10
2018-08-20T21:06:36.724Z,4.33
2018-08-20T21:09:08.562Z,4.20
2018-08-20T21:11:37.731Z,3.73
2018-08-20T21:14:06.507Z,3.40
2018-08-20T21:16:35.044Z,4.63
2018-08-20T21:19:04.764Z,3.60
2018-08-20T21:21:34.069Z,3.90
2018-08-20T21:24:05.397Z,3.20
2018-08-20T21:26:34.053Z,3.90
2018-08-20T21:29:02.567Z,3.30
2018-08-20T21:31:37.231Z,4.47
2018-08-20T21:34:05.886Z,5.00
2018-08-20T21:36:34.623Z,4.47
2018-08-20T21:39:03.407Z,3.30
2018-08-20T21:41:32.093Z,4.17
2018-08-20T21:44:00.839Z,4.10
2018-08-20T21:46:29.581Z,4.30
2018-08-20T21:48:58.554Z,4.60
2018-08-20T21:51:28.663Z,4.27
2018-08-20T21:53:57.896Z,4.07
2018-08-20T21:56:36.444Z,3.33
2018-08-20T21:59:05.196Z,4.57
2018-08-20T22:01:34.490Z,4.27
2018-08-20T22:04:07.434Z,3.67
2018-08-20T22:06:36.695Z,4.73
2018-08-20T22:09:05.904Z,6.70
2018-08-20T22:11:34.425Z,5.30
2018-08-20T22:14:02.990Z,5.00
2018-08-20T22:16:31.651Z,5.40
2018-08-20T22:19:00.424Z,5.30
2018-08-20T22:21:28.944Z,5.73
2018-08-20T22:23:59.874Z,4.97
2018-08-20T22:26:28.600Z,4.57
2018-08-20T22:28:57.739Z,6.83
2018-08-20T22:31:26.528Z,4.67
2018-08-20T22:34:00.232Z,3.93
2018-08-20T22:36:30.315Z,4.43
2018-08-20T22:39:00.111Z,9.43
2018-08-20T22:41:29.973Z,4.93
2018-08-20T22:43:58.917Z,6.30
2018-08-20T22:46:27.514Z,4.80
2018-08-20T22:48:58.723Z,5.17
2018-08-20T22:51:28.468Z,5.33
2018-08-20T22:53:58.495Z,4.90
2018-08-20T22:56:30.504Z,5.60
2018-08-20T22:59:14.064Z,4.43
2018-08-20T23:01:42.879Z,4.73
2018-08-20T23:04:11.488Z,7.33
2018-08-20T23:06:40.064Z,6.57
2018-08-20T23:09:27.067Z,4.10
2018-08-20T23:11:55.833Z,8.17
2018-08-20T23:14:24.499Z,5.23
2018-08-20T23:16:53.527Z,5.97
2018-08-20T23:19:22.193Z,7.17
2018-08-20T23:21:53.802Z,6.90
2018-08-20T23:24:22.303Z,6.43
2018-08-20T23:26:50.895Z,6.57
2018-08-20T23:29:19.492Z,5.80
2018-08-20T23:31:48.143Z,6.53
2018-08-20T23:34:16.782Z,6.03
2018-08-20T23:36:45.295Z,5.20
2018-08-20T23:39:15.284Z,5.73
2018-08-20T23:41:43.908Z,5.77
2018-08-20T23:44:17.122Z,5.03
2018-08-20T23:46:47.355Z,6.10
2018-08-20T23:49:15.895Z,5.10
2018-08-20T23:51:44.667Z,5.60
2018-08-20T23:54:13.823Z,5.37
2018-08-20T23:56:42.441Z,6.43
2018-08-20T23:59:10.970Z,6.67
